sensor_id;sensor_type;location;lat;lon;timestamp;temperature;humidity
34815;DHT22;21030;53.912;15.214;2023-02-26T00:01:52;26.10;21.40
34815;DHT22;21030;53.912;15.214;2023-02-26T00:04:30;25.90;21.30
34815;DHT22;21030;53.912;15.214;2023-02-26T00:07:00;26.00;21.10
34815;DHT22;21030;53.912;15.214;2023-02-26T00:09:29;26.50;21.10
34815;DHT22;21030;53.912;15.214;2023-02-26T00:11:59;26.30;21.00
34815;DHT22;21030;53.912;15.214;2023-02-26T00:14:29;25.80;21.20
34815;DHT22;21030;53.912;15.214;2023-02-26T00:19:51;26.20;20.80
34815;DHT22;21030;53.912;15.214;2023-02-26T00:22:21;25.70;21.00
34815;DHT22;21030;53.912;15.214;2023-02-26T00:24:51;26.60;21.00
34815;DHT22;21030;53.912;15.214;2023-02-26T00:27:23;26.50;20.70
34815;DHT22;21030;53.912;15.214;2023-02-26T00:29:54;27.10;20.80
34815;DHT22;21030;53.912;15.214;2023-02-26T00:32:23;26.80;20.70
34815;DHT22;21030;53.912;15.214;2023-02-26T00:34:53;26.20;20.90
34815;DHT22;21030;53.912;15.214;2023-02-26T00:42:44;25.90;21.40
34815;DHT22;21030;53.912;15.214;2023-02-26T00:45:15;25.60;21.40
34815;DHT22;21030;53.912;15.214;2023-02-26T00:48:11;25.60;21.40
34815;DHT22;21030;53.912;15.214;2023-02-26T00:51:01;25.10;21.40
34815;DHT22;21030;53.912;15.214;2023-02-26T00:53:58;25.20;21.70
34815;DHT22;21030;53.912;15.214;2023-02-26T00:56:30;25.80;21.80
34815;DHT22;21030;53.912;15.214;2023-02-26T00:58:59;26.30;21.20
34815;DHT22;21030;53.912;15.214;2023-02-26T01:01:29;26.50;21.10
34815;DHT22;21030;53.912;15.214;2023-02-26T01:03:59;26.70;20.80
34815;DHT22;21030;53.912;15.214;2023-02-26T01:06:33;26.70;20.80
34815;DHT22;21030;53.912;15.214;2023-02-26T01:09:28;26.70;20.80
34815;DHT22;21030;53.912;15.214;2023-02-26T01:12:00;26.50;20.60
34815;DHT22;21030;53.912;15.214;2023-02-26T01:14:31;27.00;20.80
34815;DHT22;21030;53.912;15.214;2023-02-26T01:22:51;26.80;20.80
34815;DHT22;21030;53.912;15.214;2023-02-26T01:25:25;27.00;20.70
34815;DHT22;21030;53.912;15.214;2023-02-26T01:27:55;27.00;20.50
34815;DHT22;21030;53.912;15.214;2023-02-26T01:30:25;27.10;20.60
34815;DHT22;21030;53.912;15.214;2023-02-26T01:33:48;27.40;20.50
34815;DHT22;21030;53.912;15.214;2023-02-26T01:38:49;27.10;20.20
34815;DHT22;21030;53.912;15.214;2023-02-26T01:41:35;27.10;20.30
34815;DHT22;21030;53.912;15.214;2023-02-26T01:44:31;26.90;20.30
34815;DHT22;21030;53.912;15.214;2023-02-26T01:47:22;27.10;20.40
34815;DHT22;21030;53.912;15.214;2023-02-26T01:49:54;27.20;20.30
34815;DHT22;21030;53.912;15.214;2023-02-26T01:55:22;26.60;20.70
34815;DHT22;21030;53.912;15.214;2023-02-26T01:57:55;26.70;20.90
34815;DHT22;21030;53.912;15.214;2023-02-26T02:00:26;27.10;20.60
34815;DHT22;21030;53.912;15.214;2023-02-26T02:02:55;27.50;20.20
34815;DHT22;21030;53.912;15.214;2023-02-26T02:05:32;27.60;20.00
34815;DHT22;21030;53.912;15.214;2023-02-26T02:08:01;28.10;20.00
34815;DHT22;21030;53.912;15.214;2023-02-26T02:10:30;28.00;19.80
34815;DHT22;21030;53.912;15.214;2023-02-26T02:13:33;27.20;19.90
34815;DHT22;21030;53.912;15.214;2023-02-26T02:16:16;26.90;20.50
34815;DHT22;21030;53.912;15.214;2023-02-26T02:18:51;26.50;20.80
34815;DHT22;21030;53.912;15.214;2023-02-26T02:21:44;26.00;20.90
34815;DHT22;21030;53.912;15.214;2023-02-26T02:24:35;25.50;21.30
34815;DHT22;21030;53.912;15.214;2023-02-26T02:27:40;26.60;21.20
34815;DHT22;21030;53.912;15.214;2023-02-26T02:33:13;26.40;21.00
34815;DHT22;21030;53.912;15.214;2023-02-26T02:36:07;26.50;20.90
34815;DHT22;21030;53.912;15.214;2023-02-26T02:38:34;27.00;20.90
34815;DHT22;21030;53.912;15.214;2023-02-26T02:41:21;27.20;20.80
34815;DHT22;21030;53.912;15.214;2023-02-26T02:43:51;26.80;20.60
34815;DHT22;21030;53.912;15.214;2023-02-26T02:46:24;26.50;20.90
34815;DHT22;21030;53.912;15.214;2023-02-26T02:49:02;26.50;21.10
34815;DHT22;21030;53.912;15.214;2023-02-26T02:51:38;26.10;21.00
34815;DHT22;21030;53.912;15.214;2023-02-26T02:54:16;26.80;21.10
34815;DHT22;21030;53.912;15.214;2023-02-26T02:56:49;26.40;20.90
34815;DHT22;21030;53.912;15.214;2023-02-26T02:59:41;26.80;21.00
34815;DHT22;21030;53.912;15.214;2023-02-26T03:02:36;26.10;20.90
34815;DHT22;21030;53.912;15.214;2023-02-26T03:05:06;25.90;21.30
34815;DHT22;21030;53.912;15.214;2023-02-26T03:07:48;25.90;21.40
34815;DHT22;21030;53.912;15.214;2023-02-26T03:10:16;26.50;21.20
34815;DHT22;21030;53.912;15.214;2023-02-26T03:12:44;26.80;20.70
34815;DHT22;21030;53.912;15.214;2023-02-26T03:15:12;27.00;20.80
34815;DHT22;21030;53.912;15.214;2023-02-26T03:20:35;26.20;20.90
34815;DHT22;21030;53.912;15.214;2023-02-26T03:23:13;26.20;21.00
34815;DHT22;21030;53.912;15.214;2023-02-26T03:28:38;26.80;20.70
34815;DHT22;21030;53.912;15.214;2023-02-26T03:33:38;26.20;21.00
34815;DHT22;21030;53.912;15.214;2023-02-26T03:38:59;26.40;21.00
34815;DHT22;21030;53.912;15.214;2023-02-26T03:41:33;26.50;21.20
34815;DHT22;21030;53.912;15.214;2023-02-26T03:44:24;26.50;20.90
34815;DHT22;21030;53.912;15.214;2023-02-26T03:47:02;26.40;20.80
34815;DHT22;21030;53.912;15.214;2023-02-26T03:49:44;26.80;20.90
34815;DHT22;21030;53.912;15.214;2023-02-26T03:52:12;26.60;21.20
34815;DHT22;21030;53.912;15.214;2023-02-26T03:54:56;27.20;20.70
34815;DHT22;21030;53.912;15.214;2023-02-26T03:57:25;27.20;20.80
34815;DHT22;21030;53.912;15.214;2023-02-26T03:59:53;27.50;20.70
34815;DHT22;21030;53.912;15.214;2023-02-26T04:02:43;28.30;20.30
34815;DHT22;21030;53.912;15.214;2023-02-26T04:05:22;27.50;20.30
34815;DHT22;21030;53.912;15.214;2023-02-26T04:07:51;27.20;20.60
34815;DHT22;21030;53.912;15.214;2023-02-26T04:10:20;26.60;21.50
34815;DHT22;21030;53.912;15.214;2023-02-26T04:12:50;26.20;21.40
34815;DHT22;21030;53.912;15.214;2023-02-26T04:15:17;26.00;22.00
34815;DHT22;21030;53.912;15.214;2023-02-26T04:17:44;26.60;22.00
34815;DHT22;21030;53.912;15.214;2023-02-26T04:20:11;27.30;21.50
34815;DHT22;21030;53.912;15.214;2023-02-26T04:22:38;27.50;21.10
34815;DHT22;21030;53.912;15.214;2023-02-26T04:25:06;27.40;20.80
34815;DHT22;21030;53.912;15.214;2023-02-26T04:27:33;27.10;20.90
34815;DHT22;21030;53.912;15.214;2023-02-26T04:30:00;26.40;21.20
34815;DHT22;21030;53.912;15.214;2023-02-26T04:32:27;26.20;21.30
34815;DHT22;21030;53.912;15.214;2023-02-26T04:34:54;25.80;21.60
34815;DHT22;21030;53.912;15.214;2023-02-26T04:37:21;26.00;21.50
34815;DHT22;21030;53.912;15.214;2023-02-26T04:39:48;26.00;21.50
34815;DHT22;21030;53.912;15.214;2023-02-26T04:42:15;25.60;21.40
34815;DHT22;21030;53.912;15.214;2023-02-26T04:44:42;26.00;21.40
34815;DHT22;21030;53.912;15.214;2023-02-26T04:47:09;25.90;21.40
34815;DHT22;21030;53.912;15.214;2023-02-26T04:49:36;26.40;21.30
34815;DHT22;21030;53.912;15.214;2023-02-26T04:52:04;26.70;21.00
34815;DHT22;21030;53.912;15.214;2023-02-26T04:54:31;26.40;21.10
34815;DHT22;21030;53.912;15.214;2023-02-26T04:56:58;26.30;21.00
34815;DHT22;21030;53.912;15.214;2023-02-26T04:59:25;26.30;21.10
34815;DHT22;21030;53.912;15.214;2023-02-26T05:01:52;26.80;20.90
34815;DHT22;21030;53.912;15.214;2023-02-26T05:04:19;26.60;20.90
34815;DHT22;21030;53.912;15.214;2023-02-26T05:06:47;26.30;21.60
34815;DHT22;21030;53.912;15.214;2023-02-26T05:09:14;26.30;21.00
34815;DHT22;21030;53.912;15.214;2023-02-26T05:11:41;26.20;21.00
34815;DHT22;21030;53.912;15.214;2023-02-26T05:14:08;26.70;20.70
34815;DHT22;21030;53.912;15.214;2023-02-26T05:16:35;27.10;20.60
34815;DHT22;21030;53.912;15.214;2023-02-26T05:19:02;27.10;20.40
34815;DHT22;21030;53.912;15.214;2023-02-26T05:21:29;27.00;20.50
34815;DHT22;21030;53.912;15.214;2023-02-26T05:23:56;27.20;20.40
34815;DHT22;21030;53.912;15.214;2023-02-26T05:26:23;27.30;20.20
34815;DHT22;21030;53.912;15.214;2023-02-26T05:28:51;27.60;20.30
34815;DHT22;21030;53.912;15.214;2023-02-26T05:31:18;27.90;20.00
34815;DHT22;21030;53.912;15.214;2023-02-26T05:33:45;27.80;20.00
34815;DHT22;21030;53.912;15.214;2023-02-26T05:36:13;26.90;20.30
34815;DHT22;21030;53.912;15.214;2023-02-26T05:38:40;26.80;20.60
34815;DHT22;21030;53.912;15.214;2023-02-26T05:41:07;27.40;20.90
34815;DHT22;21030;53.912;15.214;2023-02-26T05:43:34;27.60;20.30
34815;DHT22;21030;53.912;15.214;2023-02-26T05:46:01;26.90;20.40
34815;DHT22;21030;53.912;15.214;2023-02-26T05:48:29;26.80;20.70
34815;DHT22;21030;53.912;15.214;2023-02-26T05:50:56;27.00;20.60
34815;DHT22;21030;53.912;15.214;2023-02-26T05:53:23;26.80;20.60
34815;DHT22;21030;53.912;15.214;2023-02-26T05:55:52;26.80;20.80
34815;DHT22;21030;53.912;15.214;2023-02-26T05:58:19;27.10;20.50
34815;DHT22;21030;53.912;15.214;2023-02-26T06:00:46;27.00;20.40
34815;DHT22;21030;53.912;15.214;2023-02-26T06:03:13;26.90;20.60
34815;DHT22;21030;53.912;15.214;2023-02-26T06:05:41;27.30;20.40
34815;DHT22;21030;53.912;15.214;2023-02-26T06:08:08;27.30;20.40
34815;DHT22;21030;53.912;15.214;2023-02-26T06:10:37;27.60;20.10
34815;DHT22;21030;53.912;15.214;2023-02-26T06:13:05;27.60;20.00
34815;DHT22;21030;53.912;15.214;2023-02-26T06:15:32;27.70;20.00
34815;DHT22;21030;53.912;15.214;2023-02-26T06:17:59;27.40;20.10
34815;DHT22;21030;53.912;15.214;2023-02-26T06:20:26;27.20;20.20
34815;DHT22;21030;53.912;15.214;2023-02-26T06:22:53;27.90;20.20
34815;DHT22;21030;53.912;15.214;2023-02-26T06:25:21;28.20;19.80
34815;DHT22;21030;53.912;15.214;2023-02-26T06:27:48;28.80;19.60
34815;DHT22;21030;53.912;15.214;2023-02-26T06:30:15;28.70;19.50
34815;DHT22;21030;53.912;15.214;2023-02-26T06:32:44;28.70;19.50
34815;DHT22;21030;53.912;15.214;2023-02-26T06:35:11;28.90;19.30
34815;DHT22;21030;53.912;15.214;2023-02-26T06:37:38;29.20;19.20
34815;DHT22;21030;53.912;15.214;2023-02-26T06:40:08;29.50;19.30
34815;DHT22;21030;53.912;15.214;2023-02-26T06:42:36;29.00;19.10
34815;DHT22;21030;53.912;15.214;2023-02-26T06:45:13;29.00;19.20
34815;DHT22;21030;53.912;15.214;2023-02-26T06:47:40;28.70;19.80
34815;DHT22;21030;53.912;15.214;2023-02-26T06:50:08;28.80;19.50
34815;DHT22;21030;53.912;15.214;2023-02-26T06:52:35;28.50;19.50
34815;DHT22;21030;53.912;15.214;2023-02-26T06:55:03;28.70;20.10
34815;DHT22;21030;53.912;15.214;2023-02-26T06:57:31;28.90;19.30
34815;DHT22;21030;53.912;15.214;2023-02-26T06:59:58;28.90;19.20
34815;DHT22;21030;53.912;15.214;2023-02-26T07:02:25;29.00;19.10
34815;DHT22;21030;53.912;15.214;2023-02-26T07:04:52;29.00;19.10
34815;DHT22;21030;53.912;15.214;2023-02-26T07:07:19;29.20;19.10
34815;DHT22;21030;53.912;15.214;2023-02-26T07:09:47;29.10;19.00
34815;DHT22;21030;53.912;15.214;2023-02-26T07:12:14;29.50;19.00
34815;DHT22;21030;53.912;15.214;2023-02-26T07:14:42;29.70;18.80
34815;DHT22;21030;53.912;15.214;2023-02-26T07:17:09;29.10;18.80
34815;DHT22;21030;53.912;15.214;2023-02-26T07:19:49;28.80;19.00
34815;DHT22;21030;53.912;15.214;2023-02-26T07:22:19;29.30;18.90
34815;DHT22;21030;53.912;15.214;2023-02-26T07:24:48;29.00;18.80
34815;DHT22;21030;53.912;15.214;2023-02-26T07:27:16;29.50;18.80
34815;DHT22;21030;53.912;15.214;2023-02-26T07:29:43;29.30;18.60
34815;DHT22;21030;53.912;15.214;2023-02-26T07:32:10;28.60;18.60
34815;DHT22;21030;53.912;15.214;2023-02-26T07:34:37;28.60;18.90
34815;DHT22;21030;53.912;15.214;2023-02-26T07:37:04;28.30;19.10
34815;DHT22;21030;53.912;15.214;2023-02-26T07:39:31;27.70;19.40
34815;DHT22;21030;53.912;15.214;2023-02-26T07:41:58;27.50;19.40
34815;DHT22;21030;53.912;15.214;2023-02-26T07:44:25;28.00;19.40
34815;DHT22;21030;53.912;15.214;2023-02-26T07:46:52;28.60;19.10
34815;DHT22;21030;53.912;15.214;2023-02-26T07:49:19;28.80;18.90
34815;DHT22;21030;53.912;15.214;2023-02-26T07:51:47;29.20;18.70
34815;DHT22;21030;53.912;15.214;2023-02-26T07:54:14;29.40;18.50
34815;DHT22;21030;53.912;15.214;2023-02-26T07:56:41;29.50;18.40
34815;DHT22;21030;53.912;15.214;2023-02-26T07:59:09;29.20;18.40
34815;DHT22;21030;53.912;15.214;2023-02-26T08:01:37;28.70;18.70
34815;DHT22;21030;53.912;15.214;2023-02-26T08:04:04;28.70;18.90
34815;DHT22;21030;53.912;15.214;2023-02-26T08:06:31;28.90;18.70
34815;DHT22;21030;53.912;15.214;2023-02-26T08:08:58;29.30;18.50
34815;DHT22;21030;53.912;15.214;2023-02-26T08:11:25;29.20;18.50
34815;DHT22;21030;53.912;15.214;2023-02-26T08:13:53;29.50;18.60
34815;DHT22;21030;53.912;15.214;2023-02-26T08:16:23;29.70;18.30
34815;DHT22;21030;53.912;15.214;2023-02-26T08:18:50;30.20;18.40
34815;DHT22;21030;53.912;15.214;2023-02-26T08:21:17;30.40;18.20
34815;DHT22;21030;53.912;15.214;2023-02-26T08:23:46;30.50;18.00
34815;DHT22;21030;53.912;15.214;2023-02-26T08:26:14;30.50;18.00
34815;DHT22;21030;53.912;15.214;2023-02-26T08:28:41;30.50;17.80
34815;DHT22;21030;53.912;15.214;2023-02-26T08:31:08;30.20;17.70
34815;DHT22;21030;53.912;15.214;2023-02-26T08:33:36;29.90;18.50
34815;DHT22;21030;53.912;15.214;2023-02-26T08:36:03;29.90;18.10
34815;DHT22;21030;53.912;15.214;2023-02-26T08:38:30;30.40;18.60
34815;DHT22;21030;53.912;15.214;2023-02-26T08:40:57;31.10;18.20
34815;DHT22;21030;53.912;15.214;2023-02-26T08:43:25;31.60;17.60
34815;DHT22;21030;53.912;15.214;2023-02-26T08:45:53;32.30;17.20
34815;DHT22;21030;53.912;15.214;2023-02-26T08:48:21;32.60;16.60
34815;DHT22;21030;53.912;15.214;2023-02-26T08:50:50;33.10;16.60
34815;DHT22;21030;53.912;15.214;2023-02-26T08:53:17;33.40;16.60
34815;DHT22;21030;53.912;15.214;2023-02-26T08:55:47;33.30;15.80
34815;DHT22;21030;53.912;15.214;2023-02-26T08:58:15;33.40;16.10
34815;DHT22;21030;53.912;15.214;2023-02-26T09:00:43;33.30;15.90
34815;DHT22;21030;53.912;15.214;2023-02-26T09:03:10;33.00;15.80
34815;DHT22;21030;53.912;15.214;2023-02-26T09:05:37;33.00;15.90
34815;DHT22;21030;53.912;15.214;2023-02-26T09:08:05;33.30;15.90
34815;DHT22;21030;53.912;15.214;2023-02-26T09:10:32;33.10;15.70
34815;DHT22;21030;53.912;15.214;2023-02-26T09:12:59;33.30;16.40
34815;DHT22;21030;53.912;15.214;2023-02-26T09:15:26;33.30;15.90
34815;DHT22;21030;53.912;15.214;2023-02-26T09:17:53;32.90;15.80
34815;DHT22;21030;53.912;15.214;2023-02-26T09:20:20;32.70;16.10
34815;DHT22;21030;53.912;15.214;2023-02-26T09:22:48;32.40;16.10
34815;DHT22;21030;53.912;15.214;2023-02-26T09:25:15;32.80;16.70
34815;DHT22;21030;53.912;15.214;2023-02-26T09:27:42;32.70;17.00
34815;DHT22;21030;53.912;15.214;2023-02-26T09:30:10;33.20;16.40
34815;DHT22;21030;53.912;15.214;2023-02-26T09:32:38;33.10;15.80
34815;DHT22;21030;53.912;15.214;2023-02-26T09:35:06;33.10;15.90
34815;DHT22;21030;53.912;15.214;2023-02-26T09:37:33;33.20;15.60
34815;DHT22;21030;53.912;15.214;2023-02-26T09:40:00;33.80;16.00
34815;DHT22;21030;53.912;15.214;2023-02-26T09:48:13;34.30;14.90
34815;DHT22;21030;53.912;15.214;2023-02-26T09:50:48;34.50;14.70
34815;DHT22;21030;53.912;15.214;2023-02-26T09:55:51;33.20;15.10
34815;DHT22;21030;53.912;15.214;2023-02-26T09:58:32;32.60;15.20
34815;DHT22;21030;53.912;15.214;2023-02-26T10:04:02;33.40;15.40
34815;DHT22;21030;53.912;15.214;2023-02-26T10:06:45;33.90;15.30
34815;DHT22;21030;53.912;15.214;2023-02-26T10:12:11;34.30;15.00
34815;DHT22;21030;53.912;15.214;2023-02-26T10:14:43;34.70;14.70
34815;DHT22;21030;53.912;15.214;2023-02-26T10:17:33;35.10;14.80
34815;DHT22;21030;53.912;15.214;2023-02-26T10:20:12;35.70;14.80
34815;DHT22;21030;53.912;15.214;2023-02-26T10:25:24;36.30;14.40
34815;DHT22;21030;53.912;15.214;2023-02-26T10:28:00;37.70;14.30
34815;DHT22;21030;53.912;15.214;2023-02-26T10:30:35;38.10;13.60
34815;DHT22;21030;53.912;15.214;2023-02-26T10:35:59;38.70;13.30
34815;DHT22;21030;53.912;15.214;2023-02-26T10:38:30;37.70;13.30
34815;DHT22;21030;53.912;15.214;2023-02-26T10:41:01;37.00;13.70
34815;DHT22;21030;53.912;15.214;2023-02-26T10:43:43;36.30;14.00
34815;DHT22;21030;53.912;15.214;2023-02-26T10:46:33;35.50;14.10
34815;DHT22;21030;53.912;15.214;2023-02-26T10:49:22;34.80;14.40
34815;DHT22;21030;53.912;15.214;2023-02-26T10:51:51;33.90;15.20
34815;DHT22;21030;53.912;15.214;2023-02-26T10:54:23;33.50;15.30
34815;DHT22;21030;53.912;15.214;2023-02-26T10:56:53;32.40;15.00
34815;DHT22;21030;53.912;15.214;2023-02-26T10:59:20;31.90;15.30
34815;DHT22;21030;53.912;15.214;2023-02-26T11:01:48;31.60;15.30
34815;DHT22;21030;53.912;15.214;2023-02-26T11:04:26;31.50;15.40
34815;DHT22;21030;53.912;15.214;2023-02-26T11:06:59;31.30;15.20
34815;DHT22;21030;53.912;15.214;2023-02-26T11:09:37;31.80;15.60
34815;DHT22;21030;53.912;15.214;2023-02-26T11:14:47;32.80;15.70
34815;DHT22;21030;53.912;15.214;2023-02-26T11:17:22;34.60;15.50
34815;DHT22;21030;53.912;15.214;2023-02-26T11:22:48;36.50;14.40
34815;DHT22;21030;53.912;15.214;2023-02-26T11:25:23;36.40;13.90
34815;DHT22;21030;53.912;15.214;2023-02-26T11:28:03;36.10;14.00
34815;DHT22;21030;53.912;15.214;2023-02-26T11:30:35;35.90;14.10
34815;DHT22;21030;53.912;15.214;2023-02-26T11:33:26;36.10;14.20
34815;DHT22;21030;53.912;15.214;2023-02-26T11:35:56;37.10;14.30
34815;DHT22;21030;53.912;15.214;2023-02-26T11:38:25;37.80;13.90
34815;DHT22;21030;53.912;15.214;2023-02-26T11:40:55;38.00;13.40
34815;DHT22;21030;53.912;15.214;2023-02-26T11:43:38;38.20;13.30
34815;DHT22;21030;53.912;15.214;2023-02-26T11:46:11;36.90;12.70
34815;DHT22;21030;53.912;15.214;2023-02-26T11:48:45;36.10;13.40
34815;DHT22;21030;53.912;15.214;2023-02-26T11:51:24;35.20;13.60
34815;DHT22;21030;53.912;15.214;2023-02-26T11:53:55;34.80;14.50
34815;DHT22;21030;53.912;15.214;2023-02-26T11:56:39;34.70;14.90
34815;DHT22;21030;53.912;15.214;2023-02-26T11:59:24;34.40;15.50
34815;DHT22;21030;53.912;15.214;2023-02-26T12:01:51;35.70;14.90
34815;DHT22;21030;53.912;15.214;2023-02-26T12:04:22;35.60;14.10
34815;DHT22;21030;53.912;15.214;2023-02-26T12:06:52;36.30;14.40
34815;DHT22;21030;53.912;15.214;2023-02-26T12:09:20;36.30;14.00
34815;DHT22;21030;53.912;15.214;2023-02-26T12:12:15;36.50;14.20
34815;DHT22;21030;53.912;15.214;2023-02-26T12:26:58;35.40;14.40
34815;DHT22;21030;53.912;15.214;2023-02-26T12:32:24;33.30;15.00
34815;DHT22;21030;53.912;15.214;2023-02-26T12:35:14;31.90;15.30
34815;DHT22;21030;53.912;15.214;2023-02-26T12:40:34;32.00;15.60
34815;DHT22;21030;53.912;15.214;2023-02-26T12:43:10;32.00;16.20
34815;DHT22;21030;53.912;15.214;2023-02-26T13:10:38;34.40;14.90
34815;DHT22;21030;53.912;15.214;2023-02-26T13:15:54;34.50;14.70
34815;DHT22;21030;53.912;15.214;2023-02-26T13:21:33;33.90;14.70
34815;DHT22;21030;53.912;15.214;2023-02-26T13:24:11;32.80;14.80
34815;DHT22;21030;53.912;15.214;2023-02-26T13:26:41;32.80;15.10
34815;DHT22;21030;53.912;15.214;2023-02-26T13:29:24;32.60;15.40
34815;DHT22;21030;53.912;15.214;2023-02-26T13:32:09;32.70;15.50
34815;DHT22;21030;53.912;15.214;2023-02-26T13:35:03;33.30;15.60
34815;DHT22;21030;53.912;15.214;2023-02-26T13:37:40;33.10;15.20
34815;DHT22;21030;53.912;15.214;2023-02-26T13:46:57;33.10;15.30
34815;DHT22;21030;53.912;15.214;2023-02-26T13:51:56;32.80;15.30
34815;DHT22;21030;53.912;15.214;2023-02-26T13:57:05;32.40;15.80
34815;DHT22;21030;53.912;15.214;2023-02-26T14:02:49;33.70;15.20
34815;DHT22;21030;53.912;15.214;2023-02-26T14:05:27;34.00;14.70
34815;DHT22;21030;53.912;15.214;2023-02-26T14:10:36;34.70;14.10
34815;DHT22;21030;53.912;15.214;2023-02-26T14:16:09;35.10;13.40
34815;DHT22;21030;53.912;15.214;2023-02-26T14:23:59;34.60;13.60
34815;DHT22;21030;53.912;15.214;2023-02-26T14:26:31;34.50;13.90
34815;DHT22;21030;53.912;15.214;2023-02-26T14:34:53;34.10;14.10
34815;DHT22;21030;53.912;15.214;2023-02-26T14:37:27;32.60;14.20
34815;DHT22;21030;53.912;15.214;2023-02-26T14:40:03;32.50;14.80
34815;DHT22;21030;53.912;15.214;2023-02-26T14:42:48;31.00;14.70
34815;DHT22;21030;53.912;15.214;2023-02-26T14:45:37;31.50;15.00
34815;DHT22;21030;53.912;15.214;2023-02-26T14:48:12;31.80;15.10
34815;DHT22;21030;53.912;15.214;2023-02-26T14:50:47;31.40;15.00
34815;DHT22;21030;53.912;15.214;2023-02-26T14:55:53;32.10;15.10
34815;DHT22;21030;53.912;15.214;2023-02-26T14:58:43;32.10;15.30
34815;DHT22;21030;53.912;15.214;2023-02-26T15:01:23;32.10;15.20
34815;DHT22;21030;53.912;15.214;2023-02-26T15:04:22;31.80;15.00
34815;DHT22;21030;53.912;15.214;2023-02-26T15:10:11;31.90;15.00
34815;DHT22;21030;53.912;15.214;2023-02-26T15:13:33;31.70;15.20
34815;DHT22;21030;53.912;15.214;2023-02-26T15:23:58;31.10;15.80
34815;DHT22;21030;53.912;15.214;2023-02-26T15:26:50;30.50;16.10
34815;DHT22;21030;53.912;15.214;2023-02-26T15:29:20;30.40;16.70
34815;DHT22;21030;53.912;15.214;2023-02-26T15:31:54;30.70;16.80
34815;DHT22;21030;53.912;15.214;2023-02-26T15:34:23;31.00;16.50
34815;DHT22;21030;53.912;15.214;2023-02-26T15:36:51;31.00;16.50
34815;DHT22;21030;53.912;15.214;2023-02-26T15:39:22;30.50;16.50
34815;DHT22;21030;53.912;15.214;2023-02-26T15:41:51;30.40;16.70
34815;DHT22;21030;53.912;15.214;2023-02-26T15:44:23;30.70;16.80
34815;DHT22;21030;53.912;15.214;2023-02-26T15:46:58;30.30;16.80
34815;DHT22;21030;53.912;15.214;2023-02-26T15:49:38;30.70;17.00
34815;DHT22;21030;53.912;15.214;2023-02-26T15:52:07;30.70;16.90
34815;DHT22;21030;53.912;15.214;2023-02-26T15:54:50;30.90;17.00
34815;DHT22;21030;53.912;15.214;2023-02-26T15:57:19;31.00;17.00
34815;DHT22;21030;53.912;15.214;2023-02-26T15:59:50;31.20;16.90
34815;DHT22;21030;53.912;15.214;2023-02-26T16:02:21;31.00;17.00
34815;DHT22;21030;53.912;15.214;2023-02-26T16:04:50;31.10;16.90
34815;DHT22;21030;53.912;15.214;2023-02-26T16:07:19;31.40;16.90
34815;DHT22;21030;53.912;15.214;2023-02-26T16:09:49;31.60;16.80
34815;DHT22;21030;53.912;15.214;2023-02-26T16:12:31;31.40;16.90
34815;DHT22;21030;53.912;15.214;2023-02-26T16:15:02;31.40;16.90
34815;DHT22;21030;53.912;15.214;2023-02-26T16:17:37;31.30;16.80
34815;DHT22;21030;53.912;15.214;2023-02-26T16:20:15;31.40;17.00
34815;DHT22;21030;53.912;15.214;2023-02-26T16:22:56;31.70;17.00
34815;DHT22;21030;53.912;15.214;2023-02-26T16:25:29;31.70;16.90
34815;DHT22;21030;53.912;15.214;2023-02-26T16:28:03;31.60;16.80
34815;DHT22;21030;53.912;15.214;2023-02-26T16:30:36;31.80;16.90
34815;DHT22;21030;53.912;15.214;2023-02-26T16:33:08;31.90;16.80
34815;DHT22;21030;53.912;15.214;2023-02-26T16:35:48;31.90;16.90
34815;DHT22;21030;53.912;15.214;2023-02-26T16:38:45;31.90;16.90
34815;DHT22;21030;53.912;15.214;2023-02-26T16:41:13;31.90;17.10
34815;DHT22;21030;53.912;15.214;2023-02-26T16:46:14;32.10;16.80
34815;DHT22;21030;53.912;15.214;2023-02-26T16:48:53;31.80;17.00
34815;DHT22;21030;53.912;15.214;2023-02-26T16:51:24;31.70;16.80
34815;DHT22;21030;53.912;15.214;2023-02-26T16:53:58;31.90;16.80
34815;DHT22;21030;53.912;15.214;2023-02-26T16:56:31;31.90;17.00
34815;DHT22;21030;53.912;15.214;2023-02-26T16:59:12;31.70;16.80
34815;DHT22;21030;53.912;15.214;2023-02-26T17:04:53;31.90;17.00
34815;DHT22;21030;53.912;15.214;2023-02-26T17:07:32;31.90;17.10
34815;DHT22;21030;53.912;15.214;2023-02-26T17:10:12;31.80;17.20
34815;DHT22;21030;53.912;15.214;2023-02-26T17:12:49;32.00;17.20
34815;DHT22;21030;53.912;15.214;2023-02-26T17:15:19;32.10;17.20
34815;DHT22;21030;53.912;15.214;2023-02-26T17:17:47;32.00;17.20
34815;DHT22;21030;53.912;15.214;2023-02-26T17:20:14;31.80;17.20
34815;DHT22;21030;53.912;15.214;2023-02-26T17:22:42;31.50;17.40
34815;DHT22;21030;53.912;15.214;2023-02-26T17:25:15;31.80;17.70
34815;DHT22;21030;53.912;15.214;2023-02-26T17:27:44;31.40;17.70
34815;DHT22;21030;53.912;15.214;2023-02-26T17:31:01;31.60;17.90
34815;DHT22;21030;53.912;15.214;2023-02-26T17:33:53;31.70;17.70
34815;DHT22;21030;53.912;15.214;2023-02-26T17:36:43;31.50;17.90
34815;DHT22;21030;53.912;15.214;2023-02-26T17:39:34;31.20;18.00
34815;DHT22;21030;53.912;15.214;2023-02-26T17:42:26;31.40;18.00
34815;DHT22;21030;53.912;15.214;2023-02-26T17:45:17;31.50;18.10
34815;DHT22;21030;53.912;15.214;2023-02-26T17:48:11;31.80;17.90
34815;DHT22;21030;53.912;15.214;2023-02-26T17:51:03;32.00;17.80
34815;DHT22;21030;53.912;15.214;2023-02-26T17:53:30;31.70;17.80
34815;DHT22;21030;53.912;15.214;2023-02-26T17:56:16;31.70;18.00
34815;DHT22;21030;53.912;15.214;2023-02-26T17:58:45;31.30;17.90
34815;DHT22;21030;53.912;15.214;2023-02-26T18:01:13;31.50;18.00
34815;DHT22;21030;53.912;15.214;2023-02-26T18:03:40;31.00;18.10
34815;DHT22;21030;53.912;15.214;2023-02-26T18:06:12;31.30;18.20
34815;DHT22;21030;53.912;15.214;2023-02-26T18:08:40;31.30;18.20
34815;DHT22;21030;53.912;15.214;2023-02-26T18:11:08;31.50;18.30
34815;DHT22;21030;53.912;15.214;2023-02-26T18:13:39;31.40;18.20
34815;DHT22;21030;53.912;15.214;2023-02-26T18:16:16;30.80;18.30
34815;DHT22;21030;53.912;15.214;2023-02-26T18:18:44;31.20;18.30
34815;DHT22;21030;53.912;15.214;2023-02-26T18:21:11;31.20;18.30
34815;DHT22;21030;53.912;15.214;2023-02-26T18:23:40;31.50;18.30
34815;DHT22;21030;53.912;15.214;2023-02-26T18:26:09;31.60;18.20
34815;DHT22;21030;53.912;15.214;2023-02-26T18:28:37;31.70;17.90
34815;DHT22;21030;53.912;15.214;2023-02-26T18:31:04;31.80;17.90